Time;durP1;ratioP1;P1;durP2;ratioP2;P2;SDS_P1;SDS_P2;PMS_P1;PMS_P2;Temp;Humidity;BMP_temperature;BMP_pressure;BME280_temperature;BME280_humidity;BME280_pressure;Samples;Min_cycle;Max_cycle;Signal;HPM_P1;HPM_P2
2022/07/25 00:02:04;;;;;;;9.60;8.23;;;;;;;22.33;61.97;93949.53;5044109;28;20202;-57
2022/07/25 00:04:49;;;;;;;9.98;8.63;;;;;;;22.04;62.69;93955.81;5051091;28;20232;-56
2022/07/25 00:07:33;;;;;;;9.85;9.00;;;;;;;21.82;63.24;93944.44;5046040;28;20205;-57
2022/07/25 00:10:18;;;;;;;12.32;9.20;;;;;;;21.66;64.25;93946.81;5040918;28;20260;-57
2022/07/25 00:13:02;;;;;;;10.48;8.93;;;;;;;21.58;64.46;93947.31;5050926;28;20240;-57
2022/07/25 00:15:46;;;;;;;10.23;9.20;;;;;;;21.52;64.62;93949.22;5047530;28;20205;-57
2022/07/25 00:18:30;;;;;;;9.68;8.77;;;;;;;21.44;64.96;93946.13;5051042;28;20205;-57
2022/07/25 00:21:14;;;;;;;8.85;8.05;;;;;;;21.31;65.36;93931.50;5049411;28;20343;-57
2022/07/25 00:23:58;;;;;;;14.10;10.25;;;;;;;21.32;65.55;93943.63;5039104;28;20281;-57
2022/07/25 00:26:42;;;;;;;11.65;10.15;;;;;;;21.15;66.35;93939.53;5052287;28;20277;-56
2022/07/25 00:29:26;;;;;;;12.63;9.98;;;;;;;21.05;66.80;93939.16;5044531;28;20213;-57
2022/07/25 00:32:10;;;;;;;9.52;8.73;;;;;;;21.07;66.45;93942.09;5046187;28;20693;-57
2022/07/25 00:34:54;;;;;;;10.38;9.27;;;;;;;20.98;66.97;93934.69;5050342;28;20673;-57
2022/07/25 00:37:37;;;;;;;10.55;8.70;;;;;;;20.93;67.14;93930.22;5049771;28;20690;-57
2022/07/25 00:40:22;;;;;;;10.00;9.20;;;;;;;20.80;67.71;93936.94;5048997;28;20258;-57
2022/07/25 00:43:06;;;;;;;10.38;9.38;;;;;;;20.76;67.66;93931.09;5050383;28;20269;-57
2022/07/25 00:45:50;;;;;;;12.70;9.20;;;;;;;20.57;68.26;93932.59;5047442;28;20277;-57
2022/07/25 00:48:34;;;;;;;10.05;9.05;;;;;;;20.45;68.86;93932.91;5039553;28;20216;-57
2022/07/25 00:51:18;;;;;;;10.68;9.73;;;;;;;20.38;69.56;93939.03;5050228;28;20263;-57
2022/07/25 00:54:03;;;;;;;10.88;8.88;;;;;;;20.31;69.59;93935.22;5033574;28;20194;-57
2022/07/25 00:56:48;;;;;;;10.80;9.70;;;;;;;20.29;69.84;93935.16;5040880;28;20193;-57
2022/07/25 00:59:32;;;;;;;10.95;9.95;;;;;;;20.22;70.04;93927.81;5041602;28;20209;-57
2022/07/25 01:02:17;;;;;;;10.70;9.23;;;;;;;20.09;70.31;93929.47;5051905;28;20248;-57
2022/07/25 01:05:02;;;;;;;10.35;9.45;;;;;;;20.02;70.57;93927.81;5058832;28;20902;-57
2022/07/25 01:07:46;;;;;;;11.30;10.13;;;;;;;19.97;71.12;93925.47;5053092;28;20673;-57
2022/07/25 01:10:32;;;;;;;11.03;9.93;;;;;;;19.92;71.33;93926.72;5047949;28;20248;-57
2022/07/25 01:13:16;;;;;;;11.30;10.10;;;;;;;20.07;70.71;93918.03;5050051;28;20588;-57
2022/07/25 01:16:00;;;;;;;10.90;9.93;;;;;;;20.09;70.40;93908.84;5049823;28;20264;-57
2022/07/25 01:18:44;;;;;;;10.83;9.83;;;;;;;19.95;71.50;93905.47;5053965;28;20221;-57
2022/07/25 01:21:28;;;;;;;11.37;10.27;;;;;;;19.95;71.20;93908.31;5051801;28;20597;-57
2022/07/25 01:24:12;;;;;;;12.73;10.37;;;;;;;19.84;71.67;93906.50;5060148;28;20225;-57
2022/07/25 01:26:56;;;;;;;12.23;10.90;;;;;;;19.76;71.91;93901.97;5054482;28;20205;-57
2022/07/25 01:29:40;;;;;;;11.90;10.70;;;;;;;19.63;72.17;93908.59;5055267;28;20690;-57
2022/07/25 01:32:24;;;;;;;10.93;9.87;;;;;;;19.54;72.36;93904.00;5052030;28;20225;-57
2022/07/25 01:35:09;;;;;;;12.77;10.60;;;;;;;19.38;73.20;93903.34;5052713;28;20244;-56
2022/07/25 01:37:53;;;;;;;11.67;10.57;;;;;;;19.37;73.15;93893.38;5053740;28;20205;-56
2022/07/25 01:40:37;;;;;;;11.97;10.03;;;;;;;19.33;73.35;93896.06;5047160;28;20249;-57
2022/07/25 01:43:21;;;;;;;11.40;10.20;;;;;;;19.39;72.98;93894.19;5050274;28;20649;-57
2022/07/25 01:46:05;;;;;;;11.70;9.30;;;;;;;19.44;73.02;93889.41;5048498;28;20201;-57
2022/07/25 01:48:49;;;;;;;10.97;9.87;;;;;;;19.28;73.50;93897.28;5037684;28;20276;-57
2022/07/25 01:51:33;;;;;;;11.73;10.53;;;;;;;19.25;73.73;93890.81;5045660;28;20209;-57
2022/07/25 01:54:17;;;;;;;11.60;10.43;;;;;;;19.33;73.61;93890.38;5049273;28;20348;-57
2022/07/25 01:57:02;;;;;;;11.40;10.23;;;;;;;19.32;73.46;93886.06;5044826;28;21575;-57
2022/07/25 01:59:46;;;;;;;10.80;9.83;;;;;;;19.22;73.69;93891.38;5049094;28;20209;-57
2022/07/25 02:02:30;;;;;;;13.90;9.97;;;;;;;19.35;73.45;93888.34;5049381;28;20224;-57
2022/07/25 02:05:15;;;;;;;14.53;10.10;;;;;;;19.25;73.94;93884.41;5052746;28;20241;-57
2022/07/25 02:07:58;;;;;;;11.87;10.70;;;;;;;19.26;73.75;93880.16;5047910;28;20290;-57
2022/07/25 02:10:42;;;;;;;11.33;10.30;;;;;;;18.98;75.58;93874.84;5039915;28;20332;-56
2022/07/25 02:13:27;;;;;;;11.00;9.97;;;;;;;19.06;75.39;93873.72;5041243;28;20186;-57
2022/07/25 02:16:11;;;;;;;11.63;10.53;;;;;;;19.10;75.11;93879.53;5048588;28;20228;-57
2022/07/25 02:18:55;;;;;;;11.13;10.20;;;;;;;19.12;74.93;93876.78;5057723;28;20204;-57
2022/07/25 02:21:40;;;;;;;11.30;10.20;;;;;;;19.06;75.07;93863.09;5056348;28;20710;-57
2022/07/25 02:24:24;;;;;;;11.80;10.67;;;;;;;19.10;74.54;93868.91;5045007;28;20221;-57
2022/07/25 02:27:08;;;;;;;10.60;9.60;;;;;;;19.06;74.88;93868.75;5050298;28;20273;-57
2022/07/25 02:29:52;;;;;;;11.73;10.53;;;;;;;19.04;74.89;93862.25;5054153;28;20256;-56
2022/07/25 02:32:36;;;;;;;11.00;10.00;;;;;;;19.01;74.76;93866.41;5048290;28;20267;-57
2022/07/25 02:35:20;;;;;;;10.83;9.83;;;;;;;18.88;75.37;93863.09;5041025;28;20190;-56
2022/07/25 02:38:04;;;;;;;12.03;10.87;;;;;;;18.80;75.98;93870.56;5056010;28;20208;-56
2022/07/25 02:40:50;;;;;;;11.57;10.43;;;;;;;18.57;77.78;93866.84;5046721;28;20285;-57
2022/07/25 02:43:34;;;;;;;12.13;10.93;;;;;;;18.65;77.58;93863.56;5043352;28;20276;-57
2022/07/25 02:46:18;;;;;;;11.20;10.10;;;;;;;18.65;77.40;93860.75;5047346;28;20197;-56
2022/07/25 02:49:02;;;;;;;13.37;11.10;;;;;;;18.55;77.54;93857.50;5050235;28;20237;-57
2022/07/25 02:51:46;;;;;;;12.80;10.83;;;;;;;18.50;77.43;93870.03;5048579;28;20203;-57
2022/07/25 02:54:30;;;;;;;11.80;10.70;;;;;;;18.45;77.28;93865.59;5044165;28;20681;-57
2022/07/25 02:57:14;;;;;;;12.33;11.13;;;;;;;18.42;78.05;93861.19;5053516;28;20682;-57
2022/07/25 02:59:59;;;;;;;13.13;10.43;;;;;;;18.43;77.44;93865.50;5058200;28;20264;-57
2022/07/25 03:02:43;;;;;;;11.10;10.10;;;;;;;18.42;77.49;93861.19;5051837;28;20281;-57
2022/07/25 03:05:27;;;;;;;12.27;10.80;;;;;;;18.33;78.25;93871.47;5050317;28;20225;-57
2022/07/25 03:08:11;;;;;;;12.23;11.13;;;;;;;18.27;78.68;93867.66;5051326;28;20244;-57
2022/07/25 03:10:55;;;;;;;11.47;10.37;;;;;;;18.14;78.86;93855.81;5050091;28;20205;-57
2022/07/25 03:13:40;;;;;;;11.93;10.73;;;;;;;18.10;79.20;93860.56;5044664;28;20580;-57
2022/07/25 03:16:24;;;;;;;16.30;10.60;;;;;;;18.13;78.95;93865.69;5049334;28;20197;-57
2022/07/25 03:19:09;;;;;;;13.37;12.00;;;;;;;18.04;80.16;93852.53;5051914;28;20277;-57
2022/07/25 03:21:53;;;;;;;14.57;11.27;;;;;;;18.07;80.10;93845.59;5061367;28;20713;-57
2022/07/25 03:24:37;;;;;;;12.17;10.97;;;;;;;18.08;79.32;93852.69;5050579;28;20264;-56
2022/07/25 03:27:21;;;;;;;12.20;11.07;;;;;;;18.10;79.02;93849.97;5044179;28;20220;-57
2022/07/25 03:30:06;;;;;;;12.53;11.27;;;;;;;18.04;78.97;93846.88;5052370;28;20233;-57
2022/07/25 03:32:50;;;;;;;11.10;10.10;;;;;;;17.96;79.36;93852.19;5056918;28;20197;-56
2022/07/25 03:35:36;;;;;;;15.13;12.43;;;;;;;17.93;79.45;93842.16;5053309;28;20247;-57
2022/07/25 03:38:20;;;;;;;15.67;11.57;;;;;;;17.92;79.44;93845.63;5053944;28;20209;-57
2022/07/25 03:41:05;;;;;;;15.83;12.67;;;;;;;17.88;78.87;93846.19;5036151;28;20275;-57
2022/07/25 03:43:49;;;;;;;11.33;10.13;;;;;;;18.03;77.85;93845.41;5043702;28;20326;-57
2022/07/25 03:46:33;;;;;;;12.40;11.20;;;;;;;18.09;77.62;93842.09;5047094;28;20750;-57
2022/07/25 03:49:17;;;;;;;11.80;10.67;;;;;;;18.12;77.21;93835.88;5062608;28;20266;-57
2022/07/25 03:52:02;;;;;;;11.37;10.37;;;;;;;18.09;77.86;93836.41;5047553;28;20206;-57
2022/07/25 03:54:46;;;;;;;12.03;10.57;;;;;;;18.18;77.46;93838.97;5053066;28;20205;-57
2022/07/25 03:57:30;;;;;;;11.43;10.23;;;;;;;18.30;76.69;93843.66;5056762;28;20197;-57
2022/07/25 04:00:14;;;;;;;13.73;10.90;;;;;;;18.38;76.15;93844.75;5049909;28;20221;-57
2022/07/25 04:02:58;;;;;;;11.17;10.07;;;;;;;18.42;75.38;93849.84;5040232;28;20221;-57
2022/07/25 04:05:42;;;;;;;11.27;10.07;;;;;;;18.41;75.74;93848.38;5047745;28;20782;-57
2022/07/25 04:08:26;;;;;;;16.13;11.73;;;;;;;18.56;75.26;93841.94;5042332;28;20217;-57
2022/07/25 04:11:10;;;;;;;13.23;10.73;;;;;;;18.57;75.77;93840.56;5052598;28;20782;-57
2022/07/25 04:13:54;;;;;;;12.60;10.70;;;;;;;19.20;73.98;93843.00;5046317;28;20281;-57
2022/07/25 04:16:39;;;;;;;11.83;10.67;;;;;;;20.21;69.90;93835.28;5047159;28;20595;-57
2022/07/25 04:19:23;;;;;;;12.47;10.00;;;;;;;21.50;65.17;93837.97;5037518;28;20206;-57
2022/07/25 04:22:07;;;;;;;11.93;9.80;;;;;;;22.74;60.75;93839.94;5049483;28;20585;-57
2022/07/25 04:24:51;;;;;;;10.47;9.37;;;;;;;23.08;58.48;93842.19;5045106;28;20272;-57
2022/07/25 04:27:35;;;;;;;10.97;9.57;;;;;;;22.99;58.65;93838.41;5042948;28;20718;-57
2022/07/25 04:30:19;;;;;;;12.23;9.10;;;;;;;23.57;57.22;93832.56;5044556;28;20236;-57
2022/07/25 04:33:03;;;;;;;10.30;9.38;;;;;;;23.32;57.29;93831.28;5050072;28;20283;-57
2022/07/25 04:35:47;;;;;;;10.80;9.80;;;;;;;22.34;60.12;93833.19;5042084;28;20209;-57
2022/07/25 04:38:32;;;;;;;10.77;9.60;;;;;;;22.02;61.82;93828.09;5051067;28;20231;-57
2022/07/25 04:41:16;;;;;;;10.85;9.75;;;;;;;21.87;62.31;93828.31;5066447;28;20288;-57
2022/07/25 04:44:00;;;;;;;11.17;10.00;;;;;;;21.71;62.99;93828.63;5054360;28;20265;-57
2022/07/25 04:46:44;;;;;;;11.03;10.03;;;;;;;21.78;63.37;93833.09;5047395;28;20687;-57
2022/07/25 04:49:28;;;;;;;11.90;10.10;;;;;;;21.87;63.73;93834.75;5058439;28;20225;-57
2022/07/25 04:52:13;;;;;;;12.60;10.50;;;;;;;22.00;63.10;93824.44;5052895;28;20344;-57
2022/07/25 04:54:56;;;;;;;11.70;10.50;;;;;;;22.13;62.88;93831.94;5047516;28;20320;-57
2022/07/25 04:57:41;;;;;;;12.13;9.48;;;;;;;22.28;61.76;93830.19;5045564;28;20197;-57
2022/07/25 05:00:25;;;;;;;16.58;10.32;;;;;;;22.30;62.37;93828.09;5044141;28;20282;-56
2022/07/25 05:03:09;;;;;;;14.15;10.35;;;;;;;22.45;62.32;93826.34;5044997;28;20222;-57
2022/07/25 05:05:53;;;;;;;11.68;10.40;;;;;;;22.61;62.83;93826.72;5049262;28;20264;-57
2022/07/25 05:08:37;;;;;;;11.23;10.07;;;;;;;22.79;62.07;93824.34;5040630;28;20213;-57
2022/07/25 05:11:21;;;;;;;12.15;10.30;;;;;;;23.06;61.16;93827.81;5051150;28;20202;-57
2022/07/25 05:14:05;;;;;;;10.50;9.48;;;;;;;23.23;60.62;93826.78;5042006;28;20224;-57
2022/07/25 05:16:49;;;;;;;11.00;10.00;;;;;;;23.28;61.54;93837.63;5044441;28;20229;-56
2022/07/25 05:19:33;;;;;;;10.43;9.45;;;;;;;23.49;61.29;93829.53;5056271;28;20204;-56
2022/07/25 05:22:17;;;;;;;12.20;10.30;;;;;;;23.50;62.65;93822.41;5051897;28;20296;-57
2022/07/25 05:25:04;;;;;;;10.57;9.57;;;;;;;23.72;62.34;93820.72;5052344;28;20304;-56
2022/07/25 05:27:49;;;;;;;12.85;10.40;;;;;;;23.88;62.20;93822.47;5059031;28;20200;-57
2022/07/25 05:30:33;;;;;;;11.15;9.95;;;;;;;24.17;61.05;93833.06;5051020;28;20309;-56
2022/07/25 05:33:16;;;;;;;10.13;9.23;;;;;;;24.30;59.64;93829.03;5050721;28;20294;-56
2022/07/25 05:36:02;;;;;;;10.48;9.57;;;;;;;24.54;59.21;93829.47;5049841;28;20556;-56
2022/07/25 05:38:46;;;;;;;9.85;8.95;;;;;;;24.72;57.82;93825.44;5048526;28;20743;-56
2022/07/25 05:41:30;;;;;;;10.68;9.15;;;;;;;24.82;58.38;93828.47;5046393;28;20740;-56
2022/07/25 05:44:14;;;;;;;10.30;9.32;;;;;;;24.98;57.03;93823.06;5044927;28;20280;-56
2022/07/25 05:46:58;;;;;;;10.13;9.10;;;;;;;25.20;57.10;93828.38;5048755;28;20197;-57
2022/07/25 05:49:42;;;;;;;9.60;8.70;;;;;;;25.44;55.34;93828.00;5051528;28;20209;-56
2022/07/25 05:52:27;;;;;;;9.38;8.48;;;;;;;25.53;53.75;93832.44;5040440;28;20243;-57
2022/07/25 05:55:12;;;;;;;9.05;8.13;;;;;;;25.62;53.81;93828.28;5048577;28;20194;-56
2022/07/25 05:57:56;;;;;;;8.73;8.00;;;;;;;25.84;52.82;93825.72;5050861;28;20271;-57
2022/07/25 06:00:41;;;;;;;9.57;8.68;;;;;;;26.02;53.05;93825.22;5042976;28;20206;-56
2022/07/25 06:03:25;;;;;;;8.95;8.05;;;;;;;26.17;52.31;93818.91;5043504;28;20229;-56
2022/07/25 06:06:09;;;;;;;9.13;8.30;;;;;;;26.42;51.50;93816.31;5051936;28;20259;-56
2022/07/25 06:08:53;;;;;;;8.60;7.90;;;;;;;26.55;51.54;93823.63;5051604;28;20593;-56
2022/07/25 06:11:37;;;;;;;9.57;8.48;;;;;;;26.58;51.70;93810.75;5054328;28;20208;-56
2022/07/25 06:14:21;;;;;;;8.80;8.00;;;;;;;26.67;51.01;93818.00;5043823;28;20311;-56
2022/07/25 06:17:05;;;;;;;9.30;8.02;;;;;;;26.90;50.15;93816.81;5048831;28;20262;-56
2022/07/25 06:19:49;;;;;;;9.95;7.60;;;;;;;26.88;50.26;93819.66;5050633;28;20205;-56
2022/07/25 06:22:34;;;;;;;12.02;7.75;;;;;;;27.14;50.05;93821.31;5046445;28;20204;-56
2022/07/25 06:25:18;;;;;;;8.73;7.93;;;;;;;27.34;49.47;93821.44;5050115;28;20777;-56
2022/07/25 06:28:02;;;;;;;9.23;8.23;;;;;;;27.48;49.52;93815.75;5050262;28;20201;-56
2022/07/25 06:30:47;;;;;;;9.18;8.27;;;;;;;27.31;48.92;93822.84;5047150;28;20281;-56
2022/07/25 06:33:31;;;;;;;9.25;7.82;;;;;;;27.51;48.30;93822.25;5050557;28;20217;-56
2022/07/25 06:36:15;;;;;;;8.95;7.90;;;;;;;27.44;48.07;93824.38;5049803;28;20367;-56
2022/07/25 06:38:59;;;;;;;9.02;8.13;;;;;;;27.63;48.27;93817.34;5050352;28;20205;-56
2022/07/25 06:41:43;;;;;;;8.23;6.72;;;;;;;27.94;47.02;93823.22;5050521;28;20645;-56
2022/07/25 06:44:27;;;;;;;8.18;7.45;;;;;;;27.96;46.33;93811.72;5039782;28;20656;-56
2022/07/25 06:47:13;;;;;;;9.00;7.90;;;;;;;28.19;46.77;93816.16;5050360;28;20268;-56
2022/07/25 06:49:58;;;;;;;8.50;7.70;;;;;;;28.42;46.93;93809.00;5050512;28;20198;-56
2022/07/25 06:52:42;;;;;;;9.73;8.38;;;;;;;28.58;46.14;93814.78;5049289;28;20202;-56
2022/07/25 06:55:26;;;;;;;8.77;7.97;;;;;;;28.66;45.32;93807.59;5043728;28;20263;-56
2022/07/25 06:58:10;;;;;;;9.30;8.32;;;;;;;28.73;44.87;93806.91;5052728;28;20197;-56
2022/07/25 07:00:54;;;;;;;7.95;7.22;;;;;;;28.96;45.46;93810.53;5049234;28;20197;-57
2022/07/25 07:03:39;;;;;;;9.13;8.32;;;;;;;28.94;45.33;93808.38;5054477;28;20237;-56
2022/07/25 07:06:23;;;;;;;8.50;7.70;;;;;;;29.28;45.04;93816.28;5042766;28;20263;-56
2022/07/25 07:09:07;;;;;;;8.73;7.90;;;;;;;29.41;45.50;93804.75;5046944;28;20221;-56
2022/07/25 07:11:51;;;;;;;8.85;7.95;;;;;;;29.48;44.48;93803.31;5053436;28;20641;-56
2022/07/25 07:14:36;;;;;;;8.88;7.65;;;;;;;29.52;44.71;93801.13;5034722;28;20198;-56
2022/07/25 07:17:21;;;;;;;8.25;7.20;;;;;;;29.76;44.84;93803.22;5053052;28;20667;-56
2022/07/25 07:20:06;;;;;;;13.13;8.05;;;;;;;29.65;44.44;93798.94;5039321;28;20740;-56
2022/07/25 07:22:50;;;;;;;9.27;8.38;;;;;;;29.35;44.63;93803.31;5054278;28;20612;-56
2022/07/25 07:25:34;;;;;;;10.73;7.40;;;;;;;29.69;44.69;93798.91;5054030;28;20198;-56
2022/07/25 07:28:18;;;;;;;8.38;7.60;;;;;;;29.72;44.74;93797.47;5048386;28;20227;-56
2022/07/25 07:31:03;;;;;;;7.93;7.15;;;;;;;29.90;43.64;93800.28;5050403;28;20252;-56
2022/07/25 07:33:48;;;;;;;8.93;8.05;;;;;;;30.12;43.24;93794.44;5043671;28;20194;-56
2022/07/25 07:36:32;;;;;;;9.15;8.15;;;;;;;30.22;42.34;93804.53;5049132;28;20205;-56
2022/07/25 07:39:16;;;;;;;9.50;7.15;;;;;;;30.25;42.61;93800.88;5053240;28;20757;-56
2022/07/25 07:42:00;;;;;;;9.77;7.70;;;;;;;30.71;42.40;93811.50;5043248;28;20197;-56
2022/07/25 07:44:44;;;;;;;8.35;7.55;;;;;;;30.94;41.38;93806.28;5048949;28;20714;-56
2022/07/25 07:47:28;;;;;;;8.75;7.95;;;;;;;30.82;41.12;93803.47;5053828;28;20809;-56
2022/07/25 07:50:12;;;;;;;8.88;7.32;;;;;;;30.79;40.50;93799.88;5053044;28;20205;-56
2022/07/25 07:52:57;;;;;;;9.48;8.52;;;;;;;30.91;41.23;93799.78;5043765;28;20682;-56
2022/07/25 07:55:44;;;;;;;10.20;7.53;;;;;;;31.19;41.25;93803.91;5053596;28;20267;-56
2022/07/25 07:58:28;;;;;;;8.10;7.30;;;;;;;31.20;41.39;93800.28;5042781;28;20292;-56
2022/07/25 08:01:12;;;;;;;8.32;7.53;;;;;;;31.50;40.30;93802.19;5039556;28;20209;-56
2022/07/25 08:03:57;;;;;;;8.02;7.28;;;;;;;31.34;39.65;93797.28;5053006;28;20280;-56
2022/07/25 08:06:42;;;;;;;9.30;8.43;;;;;;;31.07;40.13;93798.97;5052163;28;20193;-56
2022/07/25 08:09:26;;;;;;;8.25;7.45;;;;;;;31.41;39.85;93800.84;5045993;28;20314;-56
2022/07/25 08:12:09;;;;;;;8.35;7.35;;;;;;;31.74;39.01;93793.28;5051253;28;20720;-56
2022/07/25 08:14:53;;;;;;;8.32;7.53;;;;;;;31.77;38.48;93805.56;5042978;28;20197;-55
2022/07/25 08:17:37;;;;;;;9.93;7.20;;;;;;;31.87;37.79;93796.03;5039577;28;20209;-54
2022/07/25 08:20:22;;;;;;;10.68;7.45;;;;;;;32.03;38.21;93801.66;5052168;28;20205;-55
2022/07/25 08:23:09;;;;;;;9.50;7.15;;;;;;;32.10;37.57;93789.22;5050919;28;20229;-55
2022/07/25 08:25:53;;;;;;;7.78;6.88;;;;;;;32.27;37.74;93801.38;5048125;28;20247;-54
2022/07/25 08:28:37;;;;;;;9.82;7.55;;;;;;;32.25;37.86;93795.59;5053226;28;20769;-54
2022/07/25 08:31:21;;;;;;;7.70;7.00;;;;;;;32.17;37.54;93794.97;5051250;28;20205;-55
2022/07/25 08:34:05;;;;;;;8.95;8.15;;;;;;;32.02;38.00;93794.41;5047654;28;20201;-55
2022/07/25 08:36:49;;;;;;;8.73;7.93;;;;;;;31.95;37.56;93784.34;5050195;28;20209;-55
2022/07/25 08:39:33;;;;;;;9.52;7.07;;;;;;;32.17;38.13;93792.78;5052760;28;20277;-55
2022/07/25 08:42:19;;;;;;;8.70;7.90;;;;;;;32.23;37.57;93789.81;5054360;28;20277;-55
2022/07/25 08:45:06;;;;;;;7.72;7.07;;;;;;;32.26;38.46;93788.34;5046229;28;20241;-55
2022/07/25 08:47:51;;;;;;;9.02;8.13;;;;;;;32.66;36.88;93778.38;5045526;28;20198;-55
2022/07/25 08:50:37;;;;;;;9.77;7.70;;;;;;;32.66;37.45;93778.38;5053024;28;20682;-55
2022/07/25 08:53:22;;;;;;;10.32;8.20;;;;;;;32.82;37.78;93786.13;5040394;28;20279;-55
2022/07/25 08:56:07;;;;;;;8.65;7.85;;;;;;;32.69;37.37;93776.16;5052209;28;20205;-56
2022/07/25 08:58:52;;;;;;;9.00;8.10;;;;;;;32.84;37.70;93780.28;5051039;28;20209;-56
2022/07/25 09:01:38;;;;;;;8.77;7.78;;;;;;;33.24;36.90;93779.66;5049958;28;20190;-55
2022/07/25 09:04:24;;;;;;;8.65;7.78;;;;;;;32.73;35.75;93779.00;5052183;28;20306;-55
2022/07/25 09:07:08;;;;;;;8.40;7.00;;;;;;;32.83;35.69;93775.97;5040855;28;20217;-54
2022/07/25 09:09:52;;;;;;;10.52;7.65;;;;;;;32.84;36.66;93769.38;5052371;28;20324;-54
2022/07/25 09:12:36;;;;;;;8.23;7.53;;;;;;;32.68;36.67;93774.72;5038132;28;20255;-54
2022/07/25 09:15:24;;;;;;;8.27;7.43;;;;;;;33.15;36.39;93775.41;5044676;28;20206;-55
2022/07/25 09:18:12;;;;;;;8.15;7.35;;;;;;;33.29;34.69;93771.59;5051242;28;20213;-55
2022/07/25 09:20:58;;;;;;;7.78;6.93;;;;;;;33.14;35.41;93768.19;5040825;28;20249;-55
2022/07/25 09:23:43;;;;;;;7.80;6.68;;;;;;;33.06;35.56;93777.03;5052366;28;20217;-55
2022/07/25 09:26:27;;;;;;;7.22;6.57;;;;;;;33.24;34.83;93770.94;5049198;28;20240;-55
2022/07/25 09:29:22;;;;;;;8.02;6.93;;;;;;;33.44;34.31;93774.97;5052643;28;20200;-54
2022/07/25 09:32:15;;;;;;;10.68;6.97;;;;;;;33.37;34.08;93764.91;5050535;28;20682;-55
2022/07/25 09:34:59;;;;;;;9.00;6.80;;;;;;;33.70;34.45;93760.00;5042166;28;20591;-55
2022/07/25 09:37:43;;;;;;;10.27;6.65;;;;;;;33.68;33.67;93768.72;5044081;28;20248;-55
2022/07/25 09:40:27;;;;;;;6.80;6.30;;;;;;;33.83;34.41;93766.97;5044129;28;20232;-55
2022/07/25 09:43:11;;;;;;;6.88;6.28;;;;;;;33.78;33.32;93759.09;5053011;28;20200;-55
2022/07/25 09:45:57;;;;;;;6.85;6.18;;;;;;;33.53;31.15;93753.00;5045536;28;20608;-55
2022/07/25 09:48:44;;;;;;;7.75;5.05;;;;;;;33.59;29.84;93755.78;5035677;28;20275;-55
2022/07/25 09:51:29;;;;;;;7.45;4.90;;;;;;;33.97;29.83;93757.97;5043885;28;20261;-55
2022/07/25 09:54:14;;;;;;;5.03;4.63;;;;;;;33.88;28.83;93765.44;5046178;28;20193;-55
2022/07/25 09:56:58;;;;;;;5.22;4.72;;;;;;;33.92;28.79;93750.09;5051585;28;20764;-55
2022/07/25 09:59:43;;;;;;;4.82;4.53;;;;;;;33.69;29.64;93752.72;5047380;28;20201;-55
2022/07/25 10:02:39;;;;;;;6.18;4.47;;;;;;;33.91;28.26;93742.84;5047097;28;20304;-55
2022/07/25 10:05:50;;;;;;;5.65;4.60;;;;;;;34.15;27.12;93747.44;5051063;28;20236;-55
2022/07/25 10:08:36;;;;;;;5.65;4.22;;;;;;;34.39;27.49;93741.13;5044406;28;20205;-55
2022/07/25 10:11:22;;;;;;;6.25;4.30;;;;;;;34.15;27.19;93753.25;5045820;28;20206;-55
2022/07/25 10:14:11;;;;;;;5.03;3.90;;;;;;;34.19;26.90;93753.19;5032888;28;20190;-54
2022/07/25 10:16:55;;;;;;;4.85;4.45;;;;;;;34.37;26.81;93755.72;5035753;28;20671;-55
2022/07/25 10:19:47;;;;;;;4.43;4.03;;;;;;;34.62;26.37;93742.06;5042899;28;20209;-54
2022/07/25 10:22:41;;;;;;;6.82;3.97;;;;;;;34.43;26.36;93746.88;5043740;28;20270;-55
2022/07/25 10:25:26;;;;;;;7.05;4.20;;;;;;;34.61;27.19;93749.38;5044002;28;20220;-55
2022/07/25 10:28:11;;;;;;;4.43;4.05;;;;;;;34.98;26.27;93739.78;5050184;28;20686;-55
2022/07/25 10:30:58;;;;;;;4.68;4.28;;;;;;;34.94;26.15;93742.78;5049266;28;20217;-55
2022/07/25 10:33:47;;;;;;;4.53;4.18;;;;;;;34.60;26.00;93742.13;5050049;28;20255;-55
2022/07/25 10:36:54;;;;;;;3.85;3.55;;;;;;;34.54;25.53;93732.81;5049729;28;20197;-55
2022/07/25 10:39:43;;;;;;;4.40;4.00;;;;;;;34.69;26.07;93749.16;5038065;28;20202;-55
2022/07/25 10:42:31;;;;;;;5.03;3.80;;;;;;;34.63;25.02;93734.03;5045965;28;20202;-55
2022/07/25 10:45:16;;;;;;;4.80;4.30;;;;;;;34.60;25.16;93736.28;5037628;28;20233;-55
2022/07/25 10:48:06;;;;;;;4.35;3.95;;;;;;;34.99;25.32;93738.31;5050912;28;20292;-55
2022/07/25 10:51:00;;;;;;;3.90;3.60;;;;;;;34.98;25.54;93731.06;5051245;28;20289;-54
2022/07/25 10:53:47;;;;;;;3.85;3.55;;;;;;;34.99;25.19;93735.41;5041875;28;20229;-55
2022/07/25 10:56:35;;;;;;;4.38;3.67;;;;;;;35.05;24.96;93730.16;5051068;28;20196;-54
2022/07/25 10:59:35;;;;;;;3.70;3.40;;;;;;;34.67;25.04;93728.84;5046101;28;20691;-55
2022/07/25 11:02:22;;;;;;;4.13;3.72;;;;;;;34.68;25.89;93729.56;5050151;28;20228;-55
2022/07/25 11:05:07;;;;;;;4.38;3.97;;;;;;;34.93;24.66;93729.72;5050027;28;20221;-55
2022/07/25 11:07:52;;;;;;;4.75;4.00;;;;;;;34.90;24.61;93721.03;5045126;28;20220;-55
2022/07/25 11:10:37;;;;;;;4.40;4.00;;;;;;;35.20;24.61;93721.78;5046634;28;20624;-55
2022/07/25 11:13:20;;;;;;;5.72;3.60;;;;;;;35.06;25.31;93725.72;5045970;28;20283;-55
2022/07/25 11:16:05;;;;;;;4.25;3.85;;;;;;;35.05;24.75;93730.16;5043096;28;20201;-55
2022/07/25 11:18:49;;;;;;;3.72;3.42;;;;;;;34.76;25.31;93718.47;5050708;28;20576;-54
2022/07/25 11:22:08;;;;;;;5.93;4.03;;;;;;;34.92;24.58;93716.66;5049785;28;20205;-55
2022/07/25 11:24:53;;;;;;;4.68;3.58;;;;;;;35.10;23.94;93722.03;5042656;28;20233;-55
2022/07/25 11:27:37;;;;;;;6.82;3.72;;;;;;;35.28;24.79;93707.72;5039557;28;20213;-54
2022/07/25 11:30:21;;;;;;;3.97;3.58;;;;;;;35.30;24.42;93715.72;5043711;28;20214;-54
2022/07/25 11:33:05;;;;;;;6.00;3.80;;;;;;;35.37;24.21;93722.78;5044542;28;20255;-54
2022/07/25 11:35:49;;;;;;;4.63;4.22;;;;;;;34.60;24.84;93712.28;5039846;28;20249;-54
2022/07/25 11:38:34;;;;;;;4.68;3.80;;;;;;;35.09;24.57;93714.75;5049425;28;20644;-54
2022/07/25 11:41:27;;;;;;;6.45;3.97;;;;;;;35.26;24.62;93712.88;5052933;28;20270;-54
2022/07/25 11:44:12;;;;;;;4.93;3.88;;;;;;;35.32;24.31;93709.81;5051223;28;20221;-54
2022/07/25 11:46:55;;;;;;;5.00;4.20;;;;;;;35.08;25.10;93707.50;5041548;28;20727;-54
2022/07/25 11:49:45;;;;;;;4.68;3.58;;;;;;;34.95;26.15;93706.38;5050162;28;20263;-54
2022/07/25 11:52:31;;;;;;;7.35;4.32;;;;;;;35.23;25.29;93708.59;5037716;28;20201;-54
2022/07/25 11:55:16;;;;;;;4.45;4.05;;;;;;;34.74;25.08;93698.16;5052709;28;20634;-55
2022/07/25 11:58:03;;;;;;;4.68;4.38;;;;;;;34.79;25.59;93699.47;5053950;28;20285;-54
2022/07/25 12:00:48;;;;;;;4.40;4.00;;;;;;;35.25;25.26;93700.50;5050661;28;20217;-54
2022/07/25 12:03:37;;;;;;;4.82;4.22;;;;;;;35.22;24.97;93690.41;5050022;28;20222;-55
2022/07/25 12:06:28;;;;;;;7.82;3.88;;;;;;;35.29;24.94;93693.88;5041166;28;20198;-55
2022/07/25 12:09:20;;;;;;;6.47;4.90;;;;;;;35.24;24.58;93701.31;5051445;28;20272;-55
2022/07/25 12:12:05;;;;;;;5.53;4.50;;;;;;;35.23;24.57;93696.94;5047043;28;20189;-54
2022/07/25 12:14:51;;;;;;;4.72;4.28;;;;;;;34.96;25.16;93688.13;5040154;28;20278;-54
2022/07/25 12:17:35;;;;;;;4.57;4.03;;;;;;;35.04;25.53;93687.22;5047991;28;20209;-54
2022/07/25 12:20:24;;;;;;;4.95;4.20;;;;;;;35.36;25.17;93674.75;5052871;28;20284;-55
2022/07/25 12:23:12;;;;;;;4.43;4.03;;;;;;;35.35;25.12;93679.16;5050315;28;20205;-54
2022/07/25 12:25:56;;;;;;;5.43;3.90;;;;;;;34.97;24.77;93674.28;5044544;28;20553;-55
2022/07/25 12:28:40;;;;;;;5.40;4.25;;;;;;;35.05;24.37;93682.81;5052908;28;20236;-55
2022/07/25 12:31:27;;;;;;;5.32;4.38;;;;;;;35.21;25.22;93677.31;5051970;28;20204;-55
2022/07/25 12:34:11;;;;;;;6.22;4.30;;;;;;;35.24;24.98;93672.16;5046105;28;20564;-55
2022/07/25 12:36:55;;;;;;;5.30;4.45;;;;;;;35.11;24.71;93679.75;5053126;28;20197;-54
2022/07/25 12:39:38;;;;;;;4.82;4.30;;;;;;;35.60;24.48;93679.91;5052762;28;20210;-54
2022/07/25 12:42:23;;;;;;;4.72;4.32;;;;;;;35.50;24.72;93671.44;5054940;28;20300;-55
2022/07/25 12:45:08;;;;;;;6.28;4.80;;;;;;;35.65;25.10;93668.84;5041445;28;20273;-54
2022/07/25 12:47:52;;;;;;;5.93;4.90;;;;;;;35.28;24.99;93663.31;5051664;28;20216;-54
2022/07/25 12:50:36;;;;;;;5.05;4.47;;;;;;;35.41;25.12;93654.94;5051217;28;20257;-54